createdAt,value
2023-02-02T00:04:21.400Z,98305.16
2023-02-02T00:14:27.635Z,98302.42
2023-02-02T00:24:33.571Z,98303.24
2023-02-02T00:34:39.393Z,98311.23
2023-02-02T00:45:03.056Z,98311.36
2023-02-02T00:55:11.247Z,98315.38
2023-02-02T01:05:17.417Z,98312.52
2023-02-02T01:15:23.604Z,98313.15
2023-02-02T01:25:30.620Z,98323.02
2023-02-02T01:35:34.840Z,98328.79
2023-02-02T01:45:40.923Z,98323.39
2023-02-02T01:55:48.500Z,98323.78
2023-02-02T02:05:58.155Z,98319.70
2023-02-02T02:16:27.849Z,98319.65
2023-02-02T02:27:04.090Z,98318.48
2023-02-02T02:37:18.397Z,98324.08
2023-02-02T02:47:25.266Z,98323.06
2023-02-02T02:57:46.002Z,98318.80
2023-02-02T03:07:56.874Z,98315.88
2023-02-02T03:18:02.857Z,98313.55
2023-02-02T03:28:10.014Z,98321.58
2023-02-02T03:38:15.875Z,98318.00
2023-02-02T03:48:21.669Z,98315.91
2023-02-02T03:58:27.756Z,98310.09
2023-02-02T04:08:35.060Z,98309.23
2023-02-02T04:18:41.089Z,98301.86
2023-02-02T04:28:47.144Z,98289.57
2023-02-02T04:38:53.935Z,98274.17
2023-02-02T04:48:59.736Z,98264.95
2023-02-02T04:59:05.678Z,98251.70
2023-02-02T05:09:11.420Z,98241.48
2023-02-02T05:19:17.210Z,98232.42
2023-02-02T05:29:22.973Z,98215.80
2023-02-02T05:39:28.855Z,98208.22
2023-02-02T05:49:34.731Z,98205.91
2023-02-02T05:59:40.567Z,98194.26
2023-02-02T06:09:46.405Z,98175.64
2023-02-02T06:19:52.054Z,98179.83
2023-02-02T06:29:57.946Z,98174.08
2023-02-02T06:40:03.673Z,98169.86
2023-02-02T06:50:10.620Z,98160.81
2023-02-02T07:00:19.725Z,98156.43
2023-02-02T07:11:14.414Z,98146.22
2023-02-02T07:20:51.961Z,98152.71
2023-02-02T07:30:57.797Z,98151.65
2023-02-02T07:41:04.970Z,98155.64
2023-02-02T07:51:13.022Z,98167.50
2023-02-02T08:01:20.478Z,98178.43
2023-02-02T08:11:27.838Z,98190.57
2023-02-02T08:21:35.518Z,98198.42
2023-02-02T08:31:42.866Z,98208.10
2023-02-02T08:41:48.596Z,98222.05
2023-02-02T08:51:55.055Z,98245.92
2023-02-02T09:02:00.886Z,98269.67
2023-02-02T09:12:07.317Z,98286.82
2023-02-02T09:22:13.231Z,98318.30
2023-02-02T09:32:18.943Z,98332.39
2023-02-02T09:42:40.815Z,98350.52
2023-02-02T09:52:51.670Z,98381.15
2023-02-02T10:03:01.141Z,98406.06
2023-02-02T10:13:16.248Z,98428.23
2023-02-02T10:23:27.425Z,98446.28
2023-02-02T10:33:39.263Z,98463.88
2023-02-02T10:44:07.409Z,98477.87
2023-02-02T10:54:50.082Z,98498.05
2023-02-02T11:05:18.948Z,98515.89
2023-02-02T11:15:31.025Z,98530.84
2023-02-02T11:25:39.698Z,98538.02
2023-02-02T11:35:55.739Z,98548.61
2023-02-02T11:46:04.483Z,98565.23
2023-02-02T11:56:19.809Z,98597.80
2023-02-02T12:06:27.926Z,98621.82
2023-02-02T12:16:53.846Z,98642.29
2023-02-02T12:27:11.363Z,98659.29
2023-02-02T12:37:26.792Z,98678.90
2023-02-02T12:47:39.789Z,98697.72
2023-02-02T12:58:01.823Z,98717.74
2023-02-02T13:08:11.753Z,98737.70
2023-02-02T13:18:21.962Z,98760.21
2023-02-02T13:28:42.878Z,98786.96
2023-02-02T13:38:49.575Z,98810.59
2023-02-02T13:49:04.646Z,98834.34
2023-02-02T13:59:20.831Z,98854.48
2023-02-02T14:09:30.818Z,98883.63
2023-02-02T14:19:55.152Z,98900.83
2023-02-02T14:30:21.599Z,98918.86
2023-02-02T14:40:47.256Z,98946.73
2023-02-02T14:50:55.890Z,98983.23
2023-02-02T15:01:12.011Z,99006.63
2023-02-02T15:11:29.964Z,99024.77
2023-02-02T15:21:39.540Z,99034.31
2023-02-02T15:31:49.780Z,99056.27
2023-02-02T15:42:10.758Z,99082.17
2023-02-02T15:52:22.876Z,99115.23
2023-02-02T16:02:37.413Z,99130.37
2023-02-02T16:12:43.390Z,99158.91
2023-02-02T16:22:51.307Z,99194.27
2023-02-02T16:32:57.250Z,99219.52
2023-02-02T16:43:17.662Z,99241.42
2023-02-02T16:53:26.020Z,99265.46
2023-02-02T17:03:35.281Z,99286.77
2023-02-02T17:13:42.972Z,99307.52
2023-02-02T17:23:51.323Z,99330.37
2023-02-02T17:33:57.048Z,99350.52
2023-02-02T17:44:04.927Z,99379.66
2023-02-02T17:54:14.459Z,99395.20
2023-02-02T18:04:20.314Z,99419.13
2023-02-02T18:14:26.520Z,99436.41
2023-02-02T18:24:32.285Z,99450.58
2023-02-02T18:34:38.201Z,99489.20
2023-02-02T18:44:43.992Z,99504.10
2023-02-02T18:54:51.033Z,99520.56
2023-02-02T19:05:13.972Z,99541.55
2023-02-02T19:15:19.960Z,99566.05
2023-02-02T19:25:26.126Z,99593.82
2023-02-02T19:35:32.144Z,99615.09
2023-02-02T19:45:39.766Z,99632.55
2023-02-02T19:55:45.590Z,99649.10
2023-02-02T20:05:52.601Z,99666.50
2023-02-02T20:16:03.909Z,99669.46
2023-02-02T20:26:24.235Z,99683.58
2023-02-02T20:36:41.051Z,99703.73
2023-02-02T20:46:46.832Z,99724.50
2023-02-02T20:56:54.317Z,99755.95
2023-02-02T21:07:00.818Z,99771.01
2023-02-02T21:17:14.832Z,99785.90
2023-02-02T21:27:21.411Z,99801.44
2023-02-02T21:37:27.766Z,99819.30
2023-02-02T21:47:36.488Z,99841.51
2023-02-02T21:57:43.419Z,99848.23
2023-02-02T22:07:53.381Z,99874.48
2023-02-02T22:17:59.287Z,99881.11
2023-02-02T22:28:14.602Z,99881.09
2023-02-02T22:38:22.597Z,99886.09
2023-02-02T22:48:28.664Z,99899.52
2023-02-02T22:58:34.523Z,99897.55
2023-02-02T23:08:40.629Z,99921.32
2023-02-02T23:18:46.518Z,99926.75
2023-02-02T23:28:52.452Z,99918.58
2023-02-02T23:38:58.624Z,99922.05
2023-02-02T23:49:04.884Z,99941.19
2023-02-02T23:59:10.804Z,99943.48
